createdAt,value
2024-01-15T00:00:10.961Z,23.25
2024-01-15T00:00:41.033Z,23.22
2024-01-15T00:01:11.176Z,23.23
2024-01-15T00:01:40.997Z,23.21
2024-01-15T00:02:10.995Z,23.23
2024-01-15T00:02:41.000Z,23.29
2024-01-15T00:03:11.054Z,23.25
2024-01-15T00:03:41.145Z,23.27
2024-01-15T00:04:11.325Z,23.30
2024-01-15T00:04:41.284Z,23.29
2024-01-15T00:05:11.325Z,23.29
2024-01-15T00:05:41.326Z,23.32
2024-01-15T00:06:11.490Z,23.30
2024-01-15T00:06:41.478Z,23.30
2024-01-15T00:07:11.467Z,23.27
2024-01-15T00:07:41.466Z,23.27
2024-01-15T00:08:11.475Z,23.27
2024-01-15T00:08:41.482Z,23.27
2024-01-15T00:09:11.540Z,23.32
2024-01-15T00:09:41.608Z,23.29
2024-01-15T00:10:11.673Z,23.30
2024-01-15T00:10:41.646Z,23.30
2024-01-15T00:11:41.717Z,23.34
2024-01-15T00:12:11.740Z,23.33
2024-01-15T00:12:41.795Z,23.33
2024-01-15T00:13:11.827Z,23.33
2024-01-15T00:13:41.828Z,23.36
2024-01-15T00:14:11.842Z,23.32
2024-01-15T00:14:41.840Z,23.32
2024-01-15T00:15:11.913Z,23.32
2024-01-15T00:15:41.940Z,23.32
2024-01-15T00:16:11.939Z,23.33
2024-01-15T00:16:41.957Z,23.33
2024-01-15T00:17:11.948Z,23.32
2024-01-15T00:17:41.978Z,23.36
2024-01-15T00:18:12.101Z,23.30
2024-01-15T00:18:42.205Z,23.30
2024-01-15T00:19:12.211Z,23.33
2024-01-15T00:19:42.199Z,23.32
2024-01-15T00:20:12.236Z,23.27
2024-01-15T00:20:42.238Z,23.27
2024-01-15T00:21:12.272Z,23.27
2024-01-15T00:21:42.303Z,23.32
2024-01-15T00:22:12.317Z,23.36
2024-01-15T00:22:42.390Z,23.36
2024-01-15T00:23:12.484Z,23.33
2024-01-15T00:23:42.566Z,23.26
2024-01-15T00:24:12.668Z,23.27
2024-01-15T00:24:42.664Z,23.30
2024-01-15T00:25:12.675Z,23.30
2024-01-15T00:25:42.672Z,23.25
2024-01-15T00:26:12.748Z,23.33
2024-01-15T00:26:42.808Z,23.34
2024-01-15T00:27:12.920Z,23.33
2024-01-15T00:27:42.986Z,23.34
2024-01-15T00:28:13.237Z,23.30
2024-01-15T00:28:43.087Z,23.30
2024-01-15T00:29:43.249Z,23.27
2024-01-15T00:30:13.536Z,23.27
2024-01-15T00:30:43.456Z,23.27
2024-01-15T00:31:13.534Z,23.26
2024-01-15T00:31:43.581Z,23.26
2024-01-15T00:32:13.621Z,23.27
2024-01-15T00:32:43.702Z,23.23
2024-01-15T00:33:13.966Z,23.25
2024-01-15T00:33:43.974Z,23.27
2024-01-15T00:34:14.044Z,23.25
2024-01-15T00:34:44.031Z,23.30
2024-01-15T00:35:13.982Z,23.29
2024-01-15T00:35:43.971Z,23.34
2024-01-15T00:36:44.171Z,23.30
2024-01-15T00:37:14.137Z,23.27
2024-01-15T00:37:44.149Z,23.29
2024-01-15T00:38:14.263Z,23.33
2024-01-15T00:38:44.256Z,23.32
2024-01-15T00:39:14.313Z,23.29
2024-01-15T00:39:44.346Z,23.26
2024-01-15T00:40:14.374Z,23.30
2024-01-15T00:40:44.399Z,23.27
2024-01-15T00:41:14.408Z,23.26
2024-01-15T00:42:14.558Z,23.30
2024-01-15T00:42:44.715Z,23.30
2024-01-15T00:43:14.658Z,23.27
2024-01-15T00:43:44.661Z,23.26
2024-01-15T00:44:44.762Z,23.22
2024-01-15T00:45:14.765Z,23.25
2024-01-15T00:45:44.790Z,23.23
2024-01-15T00:46:14.810Z,23.26
2024-01-15T00:46:44.807Z,23.25
2024-01-15T00:47:14.813Z,23.22
2024-01-15T00:47:44.889Z,23.22
2024-01-15T00:48:15.070Z,23.25
2024-01-15T00:48:45.089Z,23.25
2024-01-15T00:49:15.474Z,23.27
2024-01-15T00:49:45.130Z,23.30
2024-01-15T00:50:15.125Z,23.23
2024-01-15T00:50:45.135Z,23.26
2024-01-15T00:51:15.154Z,23.29
2024-01-15T00:51:45.240Z,23.26
2024-01-15T00:52:15.208Z,23.27
2024-01-15T00:52:45.218Z,23.26
2024-01-15T00:53:15.213Z,23.27
2024-01-15T00:54:15.332Z,23.27
2024-01-15T00:54:45.396Z,23.29
2024-01-15T00:55:15.398Z,23.26
2024-01-15T00:55:45.417Z,23.26
2024-01-15T00:56:15.434Z,23.29
2024-01-15T00:56:45.418Z,23.23
2024-01-15T00:57:45.604Z,23.27
2024-01-15T00:58:15.534Z,23.29
2024-01-15T00:58:45.520Z,23.27
2024-01-15T00:59:15.633Z,23.29
2024-01-15T00:59:45.633Z,23.23
2024-01-15T01:00:15.694Z,23.27
2024-01-15T01:00:45.877Z,23.27
2024-01-15T01:01:15.812Z,23.25
2024-01-15T01:01:45.800Z,23.26
2024-01-15T01:02:15.848Z,23.33
2024-01-15T01:02:45.857Z,23.27
2024-01-15T01:03:15.964Z,23.25
2024-01-15T01:03:46.013Z,23.27
2024-01-15T01:04:16.106Z,23.26
2024-01-15T01:04:46.018Z,23.30
2024-01-15T01:05:16.087Z,23.33
2024-01-15T01:05:46.141Z,23.27
2024-01-15T01:06:16.247Z,23.26
2024-01-15T01:06:46.306Z,23.23
2024-01-15T01:07:16.347Z,23.22
2024-01-15T01:07:46.335Z,23.25
2024-01-15T01:08:16.341Z,23.22
2024-01-15T01:08:46.339Z,23.23
2024-01-15T01:09:16.600Z,23.18
2024-01-15T01:09:46.639Z,23.18
2024-01-15T01:10:16.607Z,23.19
2024-01-15T01:10:46.599Z,23.19
2024-01-15T01:11:16.611Z,23.16
2024-01-15T01:11:46.737Z,23.16
2024-01-15T01:12:16.763Z,23.16
2024-01-15T01:12:46.885Z,23.18
2024-01-15T01:13:16.772Z,23.21
2024-01-15T01:13:46.777Z,23.18
2024-01-15T01:14:16.811Z,23.21
2024-01-15T01:14:46.794Z,23.19
2024-01-15T01:15:16.819Z,23.19
2024-01-15T01:15:47.041Z,23.21
2024-01-15T01:16:16.871Z,23.23
2024-01-15T01:16:46.892Z,23.21
2024-01-15T01:17:16.934Z,23.25
2024-01-15T01:17:47.112Z,23.22
2024-01-15T01:18:17.302Z,23.19
2024-01-15T01:18:47.325Z,23.22
2024-01-15T01:19:17.343Z,23.19
2024-01-15T01:19:47.338Z,23.21
2024-01-15T01:20:19.270Z,23.18
2024-01-15T01:20:47.334Z,23.19
2024-01-15T01:21:17.373Z,23.19
2024-01-15T01:21:47.397Z,23.25
2024-01-15T01:22:17.486Z,23.22
2024-01-15T01:22:47.602Z,23.19
2024-01-15T01:23:17.572Z,23.18
2024-01-15T01:23:47.663Z,23.21
2024-01-15T01:24:17.765Z,23.22
2024-01-15T01:24:47.869Z,23.18
2024-01-15T01:25:17.890Z,23.15
2024-01-15T01:25:47.925Z,23.18
2024-01-15T01:26:17.889Z,23.15
2024-01-15T01:26:47.926Z,23.19
2024-01-15T01:27:17.977Z,23.18
2024-01-15T01:27:47.945Z,23.19
2024-01-15T01:28:18.026Z,23.16
2024-01-15T01:28:48.076Z,23.19
2024-01-15T01:29:18.146Z,23.18
2024-01-15T01:29:48.222Z,23.18
2024-01-15T01:30:18.352Z,23.21
2024-01-15T01:30:48.435Z,23.19
2024-01-15T01:31:18.520Z,23.19
2024-01-15T01:31:48.623Z,23.19
2024-01-15T01:32:18.556Z,23.23
2024-01-15T01:32:48.599Z,23.26
2024-01-15T01:33:18.794Z,23.23
2024-01-15T01:33:48.710Z,23.23
2024-01-15T01:34:18.834Z,23.23
2024-01-15T01:34:48.784Z,23.25
2024-01-15T01:35:18.791Z,23.25
2024-01-15T01:35:48.805Z,23.27
2024-01-15T01:36:18.881Z,23.25
2024-01-15T01:37:18.915Z,23.29
2024-01-15T01:37:48.940Z,23.27
2024-01-15T01:38:18.914Z,23.27
2024-01-15T01:38:48.924Z,23.27
2024-01-15T01:39:18.991Z,23.27
2024-01-15T01:39:49.070Z,23.26
2024-01-15T01:40:19.067Z,23.26
2024-01-15T01:40:49.057Z,23.26
2024-01-15T01:41:19.069Z,23.29
2024-01-15T01:41:49.072Z,23.26
2024-01-15T01:42:19.098Z,23.27
2024-01-15T01:42:49.268Z,23.29
2024-01-15T01:43:19.176Z,23.26
2024-01-15T01:43:49.178Z,23.27
2024-01-15T01:44:19.193Z,23.29
2024-01-15T01:44:49.201Z,23.27
2024-01-15T01:45:19.245Z,23.27
2024-01-15T01:45:49.346Z,23.25
2024-01-15T01:46:19.281Z,23.26
2024-01-15T01:46:49.294Z,23.23
2024-01-15T01:47:19.317Z,23.27
2024-01-15T01:47:49.446Z,23.29
2024-01-15T01:48:19.538Z,23.21
2024-01-15T01:48:49.587Z,23.21
2024-01-15T01:49:19.637Z,23.25
2024-01-15T01:49:49.812Z,23.22
2024-01-15T01:50:19.752Z,23.22
2024-01-15T01:50:49.731Z,23.21
2024-01-15T01:51:19.779Z,23.19
2024-01-15T01:51:49.870Z,23.18
2024-01-15T01:52:19.822Z,23.21
2024-01-15T01:52:49.822Z,23.22
2024-01-15T01:53:49.887Z,23.22
2024-01-15T01:54:19.939Z,23.23
2024-01-15T01:54:50.011Z,23.25
2024-01-15T01:55:20.001Z,23.22
2024-01-15T01:55:50.000Z,23.26
2024-01-15T01:56:20.029Z,23.27
2024-01-15T01:56:50.035Z,23.23
2024-01-15T01:57:20.143Z,23.25
2024-01-15T01:57:50.147Z,23.26
2024-01-15T01:58:20.144Z,23.25
2024-01-15T01:58:50.118Z,23.26
2024-01-15T01:59:50.198Z,23.25
2024-01-15T02:00:20.335Z,23.25
2024-01-15T02:00:50.524Z,23.27
2024-01-15T02:01:20.762Z,23.27
2024-01-15T02:01:50.402Z,23.26
2024-01-15T02:02:50.477Z,23.26
2024-01-15T02:03:20.561Z,23.26
2024-01-15T02:03:50.639Z,23.30
2024-01-15T02:04:22.315Z,23.32
2024-01-15T02:04:50.780Z,23.33
2024-01-15T02:05:20.809Z,23.30
2024-01-15T02:05:50.936Z,23.36
2024-01-15T02:06:20.951Z,23.33
2024-01-15T02:06:50.992Z,23.32
2024-01-15T02:07:20.944Z,23.30
2024-01-15T02:07:50.972Z,23.32
2024-01-15T02:08:20.972Z,23.29
2024-01-15T02:08:50.975Z,23.30
2024-01-15T02:09:21.057Z,23.32
2024-01-15T02:09:51.163Z,23.30
2024-01-15T02:10:21.198Z,23.30
2024-01-15T02:10:51.202Z,23.26
2024-01-15T02:11:21.205Z,23.27
2024-01-15T02:11:51.215Z,23.25
2024-01-15T02:12:51.360Z,23.26
2024-01-15T02:13:21.283Z,23.25
2024-01-15T02:13:51.318Z,23.32
2024-01-15T02:14:21.319Z,23.32
2024-01-15T02:14:51.337Z,23.32
2024-01-15T02:15:21.381Z,23.27
2024-01-15T02:15:51.533Z,23.27
2024-01-15T02:16:21.376Z,23.26
2024-01-15T02:17:21.466Z,23.27
2024-01-15T02:17:51.507Z,23.26
2024-01-15T02:18:21.669Z,23.27
2024-01-15T02:18:51.690Z,23.30
2024-01-15T02:19:21.833Z,23.30
2024-01-15T02:19:51.852Z,23.27
2024-01-15T02:20:21.742Z,23.26
2024-01-15T02:20:51.745Z,23.25
2024-01-15T02:21:21.801Z,23.25
2024-01-15T02:21:51.845Z,23.29
2024-01-15T02:22:21.843Z,23.25
2024-01-15T02:22:51.913Z,23.27
2024-01-15T02:23:21.991Z,23.26
2024-01-15T02:23:52.092Z,23.30
2024-01-15T02:24:22.207Z,23.29
2024-01-15T02:24:52.309Z,23.26
2024-01-15T02:25:22.277Z,23.23
2024-01-15T02:25:52.355Z,23.21
2024-01-15T02:26:22.446Z,23.26
2024-01-15T02:26:52.521Z,23.25
2024-01-15T02:27:22.647Z,23.22
2024-01-15T02:27:52.629Z,23.25
2024-01-15T02:28:22.710Z,23.23
2024-01-15T02:28:52.799Z,23.26
2024-01-15T02:29:22.927Z,23.29
2024-01-15T02:29:52.974Z,23.29
2024-01-15T02:30:23.118Z,23.30
2024-01-15T02:30:53.296Z,23.29
2024-01-15T02:31:23.423Z,23.26
2024-01-15T02:31:53.517Z,23.27
2024-01-15T02:32:23.407Z,23.26
2024-01-15T02:32:53.380Z,23.27
2024-01-15T02:33:23.747Z,23.26
2024-01-15T02:33:53.585Z,23.27
2024-01-15T02:34:23.663Z,23.23
2024-01-15T02:34:53.743Z,23.26
2024-01-15T02:35:23.706Z,23.32
2024-01-15T02:35:53.711Z,23.29
2024-01-15T02:36:23.761Z,23.27
2024-01-15T02:36:53.797Z,23.27
2024-01-15T02:37:23.795Z,23.26
2024-01-15T02:37:53.829Z,23.25
2024-01-15T02:38:23.848Z,23.26
2024-01-15T02:38:53.858Z,23.26
2024-01-15T02:39:23.890Z,23.23
2024-01-15T02:39:53.966Z,23.26
2024-01-15T02:40:23.989Z,23.26
2024-01-15T02:40:53.989Z,23.27
2024-01-15T02:41:23.983Z,23.26
2024-01-15T02:41:53.984Z,23.25
2024-01-15T02:42:23.993Z,23.29
2024-01-15T02:42:53.996Z,23.27
2024-01-15T02:43:23.996Z,23.29
2024-01-15T02:43:54.018Z,23.29
2024-01-15T02:44:24.007Z,23.32
2024-01-15T02:44:54.155Z,23.26
2024-01-15T02:45:24.156Z,23.30
2024-01-15T02:45:54.289Z,23.32
2024-01-15T02:46:24.177Z,23.30
2024-01-15T02:46:54.190Z,23.30
2024-01-15T02:47:24.196Z,23.30
2024-01-15T02:47:54.231Z,23.29
2024-01-15T02:48:24.342Z,23.32
2024-01-15T02:48:54.385Z,23.33
2024-01-15T02:49:24.403Z,23.27
2024-01-15T02:49:54.418Z,23.29
2024-01-15T02:50:24.408Z,23.27
2024-01-15T02:50:54.409Z,23.26
2024-01-15T02:51:54.516Z,23.29
2024-01-15T02:52:24.504Z,23.25
2024-01-15T02:52:54.514Z,23.23
2024-01-15T02:53:24.512Z,23.22
2024-01-15T02:54:24.637Z,23.19
2024-01-15T02:54:54.723Z,23.21
2024-01-15T02:55:24.809Z,23.23
2024-01-15T02:55:54.801Z,23.25
2024-01-15T02:56:24.877Z,23.22
2024-01-15T02:56:54.868Z,23.25
2024-01-15T02:57:24.978Z,23.23
2024-01-15T02:57:54.980Z,23.22
2024-01-15T02:58:24.997Z,23.23
2024-01-15T02:58:54.999Z,23.23
2024-01-15T02:59:25.007Z,23.25
2024-01-15T02:59:55.018Z,23.25
2024-01-15T03:00:25.064Z,23.27
2024-01-15T03:00:55.160Z,23.26
2024-01-15T03:01:25.206Z,23.22
2024-01-15T03:01:55.216Z,23.25
2024-01-15T03:02:25.235Z,23.27
2024-01-15T03:02:55.324Z,23.27
2024-01-15T03:03:25.443Z,23.29
2024-01-15T03:03:55.457Z,23.30
2024-01-15T03:04:25.589Z,23.27
2024-01-15T03:04:55.510Z,23.27
2024-01-15T03:05:25.538Z,23.23
2024-01-15T03:05:55.784Z,23.25
2024-01-15T03:06:25.723Z,23.23
2024-01-15T03:06:55.743Z,23.18
2024-01-15T03:07:25.748Z,23.21
2024-01-15T03:07:55.860Z,23.19
2024-01-15T03:08:25.856Z,23.22
2024-01-15T03:08:55.871Z,23.19
2024-01-15T03:09:25.897Z,23.21
2024-01-15T03:09:55.976Z,23.22
2024-01-15T03:10:25.997Z,23.23
2024-01-15T03:10:56.026Z,23.23
2024-01-15T03:11:26.011Z,23.25
2024-01-15T03:11:56.007Z,23.22
2024-01-15T03:12:26.065Z,23.23
2024-01-15T03:12:56.108Z,23.18
2024-01-15T03:13:26.112Z,23.21
2024-01-15T03:13:56.121Z,23.21
2024-01-15T03:14:26.127Z,23.23
2024-01-15T03:14:56.139Z,23.18
2024-01-15T03:15:26.227Z,23.21
2024-01-15T03:15:56.335Z,23.16
2024-01-15T03:16:26.228Z,23.18
2024-01-15T03:16:56.247Z,23.19
2024-01-15T03:17:26.280Z,23.16
2024-01-15T03:17:56.324Z,23.13
2024-01-15T03:18:26.509Z,23.18
2024-01-15T03:18:56.406Z,23.15
2024-01-15T03:19:26.481Z,23.16
2024-01-15T03:19:56.629Z,23.16
2024-01-15T03:20:26.470Z,23.15
2024-01-15T03:20:56.460Z,23.21
2024-01-15T03:21:56.603Z,23.11
2024-01-15T03:22:26.578Z,23.12
2024-01-15T03:22:56.687Z,23.11
2024-01-15T03:23:26.741Z,23.13
2024-01-15T03:23:56.842Z,23.11
2024-01-15T03:24:26.953Z,23.13
2024-01-15T03:24:57.058Z,23.18
2024-01-15T03:25:27.014Z,23.16
2024-01-15T03:25:57.127Z,23.18
2024-01-15T03:26:27.110Z,23.18
2024-01-15T03:26:57.185Z,23.18
2024-01-15T03:27:27.394Z,23.16
2024-01-15T03:27:57.338Z,23.19
2024-01-15T03:28:27.293Z,23.21
2024-01-15T03:28:57.367Z,23.19
2024-01-15T03:29:27.460Z,23.18
2024-01-15T03:29:57.527Z,23.21
2024-01-15T03:30:27.684Z,23.16
2024-01-15T03:30:57.731Z,23.21
2024-01-15T03:31:27.841Z,23.22
2024-01-15T03:31:57.779Z,23.23
2024-01-15T03:32:27.756Z,23.22
2024-01-15T03:32:57.850Z,23.18
2024-01-15T03:33:27.985Z,23.18
2024-01-15T03:33:57.990Z,23.15
2024-01-15T03:34:28.032Z,23.18
2024-01-15T03:34:58.090Z,23.18
2024-01-15T03:35:28.023Z,23.19
2024-01-15T03:35:58.051Z,23.16
2024-01-15T03:36:28.152Z,23.18
2024-01-15T03:36:58.140Z,23.15
2024-01-15T03:37:28.157Z,23.16
2024-01-15T03:37:58.168Z,23.15
2024-01-15T03:38:28.163Z,23.21
2024-01-15T03:38:58.286Z,23.19
2024-01-15T03:39:28.330Z,23.19
2024-01-15T03:39:58.535Z,23.15
2024-01-15T03:40:28.636Z,23.21
2024-01-15T03:40:58.492Z,23.16
2024-01-15T03:41:28.500Z,23.12
2024-01-15T03:41:58.505Z,23.18
2024-01-15T03:42:58.598Z,23.16
2024-01-15T03:43:28.597Z,23.18
2024-01-15T03:43:58.712Z,23.16
2024-01-15T03:44:28.720Z,23.16
2024-01-15T03:44:58.724Z,23.15
2024-01-15T03:45:28.860Z,23.15
2024-01-15T03:45:58.810Z,23.09
2024-01-15T03:46:58.832Z,23.12
2024-01-15T03:47:28.900Z,23.11
2024-01-15T03:48:29.002Z,23.11
2024-01-15T03:48:59.051Z,23.11
2024-01-15T03:49:29.244Z,23.12
2024-01-15T03:49:59.118Z,23.15
2024-01-15T03:50:29.129Z,23.19
2024-01-15T03:50:59.213Z,23.19
2024-01-15T03:51:29.193Z,23.15
2024-01-15T03:52:29.321Z,23.18
2024-01-15T03:52:59.322Z,23.21
2024-01-15T03:53:29.322Z,23.19
2024-01-15T03:54:29.460Z,23.15
2024-01-15T03:54:59.492Z,23.15
2024-01-15T03:55:29.515Z,23.13
2024-01-15T03:55:59.532Z,23.13
2024-01-15T03:56:29.509Z,23.13
2024-01-15T03:57:29.615Z,23.12
2024-01-15T03:57:59.630Z,23.09
2024-01-15T03:58:29.639Z,23.11
2024-01-15T03:58:59.647Z,23.13
2024-01-15T03:59:29.669Z,23.11
2024-01-15T03:59:59.659Z,23.09
2024-01-15T04:00:59.890Z,23.09
2024-01-15T04:01:29.824Z,23.02
2024-01-15T04:01:59.845Z,23.02
2024-01-15T04:02:29.883Z,23.02
2024-01-15T04:02:59.863Z,22.98
2024-01-15T04:03:29.977Z,22.99
2024-01-15T04:03:59.992Z,22.98
2024-01-15T04:04:30.070Z,23.02
2024-01-15T04:05:00.064Z,22.99
2024-01-15T04:05:30.070Z,23.01
2024-01-15T04:06:00.110Z,23.01
2024-01-15T04:06:30.386Z,22.99
2024-01-15T04:07:00.217Z,23.01
2024-01-15T04:07:30.272Z,22.96
2024-01-15T04:08:00.277Z,22.98
2024-01-15T04:08:30.296Z,22.92
2024-01-15T04:09:00.310Z,22.94
2024-01-15T04:10:00.437Z,22.89
2024-01-15T04:10:30.389Z,22.87
2024-01-15T04:11:00.375Z,22.85
2024-01-15T04:12:00.473Z,22.85
2024-01-15T04:12:30.509Z,22.84
2024-01-15T04:13:00.539Z,22.78
2024-01-15T04:13:30.585Z,22.77
2024-01-15T04:14:00.571Z,22.77
2024-01-15T04:14:30.575Z,22.74
2024-01-15T04:15:00.692Z,22.71
2024-01-15T04:15:30.729Z,22.67
2024-01-15T04:16:00.791Z,22.64
2024-01-15T04:16:30.802Z,22.63
2024-01-15T04:17:00.798Z,22.60
2024-01-15T04:17:30.843Z,22.57
2024-01-15T04:18:00.938Z,22.57
2024-01-15T04:18:30.961Z,22.56
2024-01-15T04:19:01.089Z,22.51
2024-01-15T04:19:31.034Z,22.51
2024-01-15T04:20:01.090Z,22.50
2024-01-15T04:20:31.096Z,22.50
2024-01-15T04:21:01.100Z,22.47
2024-01-15T04:21:31.214Z,22.46
2024-01-15T04:22:01.175Z,22.44
2024-01-15T04:22:31.253Z,22.42
2024-01-15T04:23:01.340Z,22.40
2024-01-15T04:23:31.429Z,22.37
2024-01-15T04:24:01.506Z,22.37
2024-01-15T04:24:31.644Z,22.37
2024-01-15T04:25:01.686Z,22.39
2024-01-15T04:25:31.667Z,22.36
2024-01-15T04:26:01.752Z,22.36
2024-01-15T04:26:31.820Z,22.36
2024-01-15T04:27:01.943Z,22.34
2024-01-15T04:27:32.142Z,22.36
2024-01-15T04:28:01.977Z,22.34
2024-01-15T04:29:02.127Z,22.30
2024-01-15T04:29:32.190Z,22.33
2024-01-15T04:30:02.257Z,22.29
2024-01-15T04:30:32.389Z,22.29
2024-01-15T04:31:02.587Z,22.27
2024-01-15T04:31:32.568Z,22.27
2024-01-15T04:32:02.518Z,22.29
2024-01-15T04:32:32.542Z,22.29
2024-01-15T04:33:02.660Z,22.29
2024-01-15T04:33:32.788Z,22.32
2024-01-15T04:34:02.791Z,22.30
2024-01-15T04:34:32.846Z,22.33
2024-01-15T04:35:02.766Z,22.36
2024-01-15T04:35:32.767Z,22.36
2024-01-15T04:36:02.778Z,22.37
2024-01-15T04:36:32.831Z,22.39
2024-01-15T04:37:02.835Z,22.37
2024-01-15T04:37:32.817Z,22.37
2024-01-15T04:38:02.823Z,22.36
2024-01-15T04:38:32.821Z,22.36
2024-01-15T04:39:32.916Z,22.34
2024-01-15T04:40:02.935Z,22.33
2024-01-15T04:40:32.944Z,22.33
2024-01-15T04:41:02.953Z,22.30
2024-01-15T04:41:32.954Z,22.29
2024-01-15T04:42:02.944Z,22.29
2024-01-15T04:42:33.087Z,22.29
2024-01-15T04:43:03.109Z,22.29
2024-01-15T04:43:33.112Z,22.25
2024-01-15T04:44:03.241Z,22.26
2024-01-15T04:44:33.224Z,22.29
2024-01-15T04:45:33.380Z,22.23
2024-01-15T04:46:03.378Z,22.22
2024-01-15T04:46:33.391Z,22.20
2024-01-15T04:47:03.381Z,22.23
2024-01-15T04:48:03.484Z,22.19
2024-01-15T04:48:33.578Z,22.19
2024-01-15T04:49:03.672Z,22.20
2024-01-15T04:49:33.664Z,22.17
2024-01-15T04:50:03.672Z,22.17
2024-01-15T04:50:33.692Z,22.15
2024-01-15T04:51:03.702Z,22.16
2024-01-15T04:51:33.720Z,22.17
2024-01-15T04:52:03.710Z,22.16
2024-01-15T04:52:33.825Z,22.12
2024-01-15T04:53:03.810Z,22.12
2024-01-15T04:53:33.818Z,22.16
2024-01-15T04:54:03.827Z,22.15
2024-01-15T04:54:33.927Z,22.13
2024-01-15T04:55:03.966Z,22.13
2024-01-15T04:55:33.992Z,22.12
2024-01-15T04:56:34.072Z,22.12
2024-01-15T04:57:04.104Z,22.15
2024-01-15T04:57:34.172Z,22.16
2024-01-15T04:58:04.186Z,22.13
2024-01-15T04:58:34.191Z,22.15
2024-01-15T04:59:04.221Z,22.13
2024-01-15T04:59:34.250Z,22.12
2024-01-15T05:00:04.274Z,22.15
2024-01-15T05:00:34.351Z,22.13
2024-01-15T05:01:04.458Z,22.15
2024-01-15T05:01:34.564Z,22.12
2024-01-15T05:02:04.465Z,22.15
2024-01-15T05:03:04.592Z,22.12
2024-01-15T05:03:34.744Z,22.16
2024-01-15T05:04:04.872Z,22.17
2024-01-15T05:04:34.910Z,22.19
2024-01-15T05:05:04.860Z,22.22
2024-01-15T05:05:34.925Z,22.23
2024-01-15T05:06:05.002Z,22.23
2024-01-15T05:06:35.033Z,22.23
2024-01-15T05:07:05.053Z,22.26
2024-01-15T05:07:35.037Z,22.27
2024-01-15T05:08:05.062Z,22.27
2024-01-15T05:08:35.189Z,22.29
2024-01-15T05:09:05.197Z,22.27
2024-01-15T05:09:35.233Z,22.27
2024-01-15T05:10:05.350Z,22.27
2024-01-15T05:10:35.269Z,22.26
2024-01-15T05:11:05.249Z,22.36
2024-01-15T05:11:35.274Z,22.32
2024-01-15T05:12:05.259Z,22.44
2024-01-15T05:12:35.416Z,22.40
2024-01-15T05:13:05.404Z,22.44
2024-01-15T05:13:35.412Z,22.46
2024-01-15T05:14:05.417Z,22.49
2024-01-15T05:14:35.414Z,22.53
2024-01-15T05:15:05.410Z,22.56
2024-01-15T05:16:05.528Z,22.59
2024-01-15T05:16:35.538Z,22.54
2024-01-15T05:17:07.389Z,22.53
2024-01-15T05:17:35.595Z,22.49
2024-01-15T05:18:05.617Z,22.50
2024-01-15T05:18:35.831Z,22.53
2024-01-15T05:19:05.785Z,22.51
2024-01-15T05:19:35.749Z,22.44
2024-01-15T05:20:05.900Z,22.44
2024-01-15T05:20:35.944Z,22.43
2024-01-15T05:21:35.821Z,22.42
2024-01-15T05:22:05.804Z,22.42
2024-01-15T05:22:35.878Z,22.37
2024-01-15T05:23:05.965Z,22.37
2024-01-15T05:23:36.025Z,22.40
2024-01-15T05:24:06.113Z,22.37
2024-01-15T05:24:36.208Z,22.37
2024-01-15T05:25:06.285Z,22.39
2024-01-15T05:25:36.376Z,22.37
2024-01-15T05:26:06.437Z,22.37
2024-01-15T05:26:36.529Z,22.36
2024-01-15T05:27:06.703Z,22.37
2024-01-15T05:27:36.773Z,22.39
2024-01-15T05:28:06.762Z,22.32
2024-01-15T05:28:36.847Z,22.39
2024-01-15T05:29:06.927Z,22.39
2024-01-15T05:29:37.022Z,22.39
2024-01-15T05:30:07.193Z,22.40
2024-01-15T05:30:37.192Z,22.40
2024-01-15T05:31:07.221Z,22.44
2024-01-15T05:31:37.590Z,22.47
2024-01-15T05:32:07.417Z,22.39
2024-01-15T05:32:37.404Z,22.40
2024-01-15T05:33:07.494Z,22.42
2024-01-15T05:33:37.603Z,22.44
2024-01-15T05:34:07.591Z,22.39
2024-01-15T05:34:37.617Z,22.42
2024-01-15T05:35:07.689Z,22.42
2024-01-15T05:35:37.689Z,22.39
2024-01-15T05:36:07.750Z,22.40
2024-01-15T05:36:37.927Z,22.40
2024-01-15T05:37:07.768Z,22.40
2024-01-15T05:37:37.826Z,22.42
2024-01-15T05:38:07.803Z,22.44
2024-01-15T05:38:37.811Z,22.46
2024-01-15T05:39:07.846Z,22.49
2024-01-15T05:39:37.881Z,22.50
2024-01-15T05:40:07.928Z,22.49
2024-01-15T05:40:37.927Z,22.49
2024-01-15T05:41:07.937Z,22.53
2024-01-15T05:41:37.982Z,22.54
2024-01-15T05:42:08.009Z,22.57
2024-01-15T05:42:38.067Z,22.59
2024-01-15T05:43:08.088Z,22.59
2024-01-15T05:43:38.111Z,22.60
2024-01-15T05:44:08.104Z,22.60
2024-01-15T05:44:38.148Z,22.60
2024-01-15T05:45:08.216Z,22.61
2024-01-15T05:45:38.252Z,22.61
2024-01-15T05:46:08.246Z,22.60
2024-01-15T05:46:38.264Z,22.60
2024-01-15T05:47:08.267Z,22.66
2024-01-15T05:47:38.466Z,22.64
2024-01-15T05:48:08.387Z,22.64
2024-01-15T05:48:38.436Z,22.66
2024-01-15T05:49:08.451Z,22.66
2024-01-15T05:49:38.497Z,22.66
2024-01-15T05:50:08.468Z,22.61
2024-01-15T05:50:38.518Z,22.70
2024-01-15T05:51:08.566Z,22.68
2024-01-15T05:51:38.545Z,22.66
2024-01-15T05:52:08.536Z,22.63
2024-01-15T05:52:38.547Z,22.63
2024-01-15T05:53:08.546Z,22.63
2024-01-15T05:53:38.549Z,22.66
2024-01-15T05:54:08.590Z,22.66
2024-01-15T05:54:38.619Z,22.68
2024-01-15T05:55:08.657Z,22.67
2024-01-15T05:55:38.672Z,22.72
2024-01-15T05:56:38.654Z,22.79
2024-01-15T05:57:08.671Z,22.77
2024-01-15T05:57:38.730Z,22.78
2024-01-15T05:58:08.742Z,22.82
2024-01-15T05:58:38.771Z,22.78
2024-01-15T05:59:10.099Z,22.79
2024-01-15T05:59:38.908Z,22.82
2024-01-15T06:00:09.015Z,22.88
2024-01-15T06:00:39.133Z,22.85
2024-01-15T06:01:09.224Z,22.87
2024-01-15T06:01:39.317Z,22.88
2024-01-15T06:02:09.348Z,22.87
2024-01-15T06:02:39.350Z,22.87
2024-01-15T06:03:09.415Z,22.89
2024-01-15T06:03:39.523Z,22.94
2024-01-15T06:04:09.558Z,22.91
2024-01-15T06:04:39.542Z,22.94
2024-01-15T06:05:09.554Z,22.98
2024-01-15T06:05:39.627Z,23.02
2024-01-15T06:06:09.700Z,23.02
2024-01-15T06:06:39.689Z,23.05
2024-01-15T06:07:09.764Z,23.09
2024-01-15T06:07:39.789Z,23.09
2024-01-15T06:08:09.803Z,23.16
2024-01-15T06:08:39.799Z,23.15
2024-01-15T06:09:39.897Z,23.22
2024-01-15T06:10:09.898Z,23.25
2024-01-15T06:10:39.894Z,23.23
2024-01-15T06:11:09.898Z,23.27
2024-01-15T06:11:39.909Z,23.29
2024-01-15T06:12:09.933Z,23.30
2024-01-15T06:12:40.063Z,23.33
2024-01-15T06:13:09.958Z,23.36
2024-01-15T06:14:10.044Z,23.40
2024-01-15T06:14:40.049Z,23.42
2024-01-15T06:15:10.077Z,23.42
2024-01-15T06:15:40.111Z,23.43
2024-01-15T06:16:10.692Z,23.43
2024-01-15T06:16:40.206Z,23.43
2024-01-15T06:17:10.216Z,23.42
2024-01-15T06:17:40.305Z,23.51
2024-01-15T06:18:40.439Z,23.54
2024-01-15T06:19:10.558Z,23.53
2024-01-15T06:19:40.478Z,23.54
2024-01-15T06:20:10.474Z,23.56
2024-01-15T06:20:40.497Z,23.54
2024-01-15T06:21:10.554Z,23.54
2024-01-15T06:21:40.663Z,23.53
2024-01-15T06:22:10.632Z,23.51
2024-01-15T06:22:40.708Z,23.53
2024-01-15T06:23:10.791Z,23.51
2024-01-15T06:23:40.888Z,23.53
2024-01-15T06:24:11.061Z,23.51
2024-01-15T06:24:41.062Z,23.50
2024-01-15T06:25:11.043Z,23.50
2024-01-15T06:25:41.132Z,23.54
2024-01-15T06:26:11.204Z,23.56
2024-01-15T06:26:41.284Z,23.58
2024-01-15T06:27:11.378Z,23.61
2024-01-15T06:27:41.424Z,23.60
2024-01-15T06:28:11.415Z,23.64
2024-01-15T06:28:41.506Z,23.61
2024-01-15T06:29:11.613Z,23.60
2024-01-15T06:29:41.685Z,23.60
2024-01-15T06:30:11.999Z,23.61
2024-01-15T06:30:41.861Z,23.67
2024-01-15T06:31:12.052Z,23.64
2024-01-15T06:31:42.237Z,23.67
2024-01-15T06:32:11.982Z,23.65
2024-01-15T06:32:42.105Z,23.65
2024-01-15T06:33:12.175Z,23.71
2024-01-15T06:33:42.313Z,23.70
2024-01-15T06:34:12.414Z,23.68
2024-01-15T06:34:42.270Z,23.68
2024-01-15T06:35:12.254Z,23.62
2024-01-15T06:35:42.280Z,23.68
2024-01-15T06:36:12.325Z,23.65
2024-01-15T06:36:42.413Z,23.68
2024-01-15T06:37:12.427Z,23.70
2024-01-15T06:37:42.427Z,23.70
2024-01-15T06:38:12.434Z,23.68
2024-01-15T06:38:42.499Z,23.70
2024-01-15T06:39:12.683Z,23.68
2024-01-15T06:39:42.628Z,23.64
2024-01-15T06:40:12.655Z,23.65
2024-01-15T06:40:42.700Z,23.67
2024-01-15T06:41:12.691Z,23.64
2024-01-15T06:41:42.678Z,23.62
2024-01-15T06:42:12.722Z,23.62
2024-01-15T06:42:42.771Z,23.61
2024-01-15T06:43:12.778Z,23.65
2024-01-15T06:43:42.770Z,23.61
2024-01-15T06:44:12.770Z,23.65
2024-01-15T06:44:42.776Z,23.61
2024-01-15T06:45:12.860Z,23.60